Time;durP1;ratioP1;P1;durP2;ratioP2;P2;SDS_P1;SDS_P2;PMS_P1;PMS_P2;Temp;Humidity;BMP_temperature;BMP_pressure;BME280_temperature;BME280_humidity;BME280_pressure;Samples;Min_cycle;Max_cycle;Signal;HPM_P1;HPM_P2
2022/07/06 00:01:03;;;;;;;21.15;19.05;;;16.70;99.90;;;;;;5041716;28;20200;-58
2022/07/06 00:03:30;;;;;;;19.70;17.83;;;16.70;99.90;;;;;;5041789;28;20205;-58
2022/07/06 00:05:57;;;;;;;18.93;16.90;;;16.60;99.90;;;;;;5042178;28;20502;-57
2022/07/06 00:08:25;;;;;;;21.85;19.48;;;16.50;99.90;;;;;;5041656;28;20456;-57
2022/07/06 00:10:52;;;;;;;19.63;17.70;;;16.50;99.90;;;;;;5041980;28;20194;-57
2022/07/06 00:13:19;;;;;;;20.23;18.23;;;16.40;99.90;;;;;;5041836;28;20207;-56
2022/07/06 00:15:46;;;;;;;19.85;17.85;;;16.40;99.90;;;;;;5024097;28;20262;-57
2022/07/06 00:18:13;;;;;;;24.70;22.13;;;16.30;99.90;;;;;;5041160;28;20217;-57
2022/07/06 00:20:41;;;;;;;25.55;22.98;;;16.10;99.90;;;;;;5041121;28;20459;-58
2022/07/06 00:23:08;;;;;;;27.17;22.52;;;16.20;99.90;;;;;;5041295;28;20203;-57
2022/07/06 00:25:35;;;;;;;20.35;18.25;;;16.10;99.90;;;;;;5041572;28;20209;-57
2022/07/06 00:28:02;;;;;;;17.30;15.55;;;16.20;99.90;;;;;;5041456;28;20291;-58
2022/07/06 00:30:30;;;;;;;18.55;16.60;;;16.10;99.90;;;;;;5041636;28;20211;-58
2022/07/06 00:32:58;;;;;;;16.98;15.40;;;16.10;99.90;;;;;;5040994;28;20201;-58
2022/07/06 00:35:25;;;;;;;16.95;15.15;;;16.20;99.90;;;;;;5040352;28;20233;-58
2022/07/06 00:37:52;;;;;;;15.75;14.15;;;16.30;99.90;;;;;;5040565;28;20233;-59
2022/07/06 00:40:20;;;;;;;14.27;12.88;;;16.20;99.90;;;;;;5041496;28;20197;-60
2022/07/06 00:42:48;;;;;;;15.30;13.80;;;16.20;99.90;;;;;;5041347;28;20197;-55
2022/07/06 00:45:17;;;;;;;15.87;14.23;;;16.20;99.90;;;;;;5041065;28;20216;-55
2022/07/06 00:47:45;;;;;;;22.80;13.67;;;16.20;99.90;;;;;;5040867;28;20943;-57
2022/07/06 00:50:14;;;;;;;13.18;11.98;;;16.20;99.90;;;;;;5040780;28;20618;-56
2022/07/06 00:52:43;;;;;;;14.65;13.38;;;16.10;99.90;;;;;;5040380;28;20202;-54
2022/07/06 00:55:11;;;;;;;13.70;12.30;;;16.20;99.90;;;;;;5040407;28;20227;-58
2022/07/06 00:57:39;;;;;;;13.52;12.13;;;16.20;99.90;;;;;;5040448;28;20225;-57
2022/07/06 01:00:12;;;;;;;13.80;12.07;;;16.20;99.90;;;;;;5040997;28;20296;-56
2022/07/06 01:02:39;;;;;;;13.75;12.43;;;16.20;99.90;;;;;;5040042;28;20442;-56
2022/07/06 01:05:09;;;;;;;18.65;13.75;;;16.20;99.90;;;;;;5022418;28;20206;-57
2022/07/06 01:07:38;;;;;;;11.07;10.18;;;16.20;99.90;;;;;;5022146;28;20220;-58
2022/07/06 01:10:07;;;;;;;14.90;13.40;;;16.20;99.90;;;;;;5039986;28;20532;-56
2022/07/06 01:12:35;;;;;;;14.15;12.85;;;16.20;99.90;;;;;;5039947;28;20204;-58
2022/07/06 01:15:05;;;;;;;13.40;12.00;;;16.10;99.90;;;;;;5039533;28;20229;-57
2022/07/06 01:17:38;;;;;;;16.58;14.80;;;16.00;99.90;;;;;;5039681;28;20316;-56
2022/07/06 01:20:19;;;;;;;14.48;13.07;;;16.00;99.90;;;;;;5040081;28;20211;-58
2022/07/06 01:22:48;;;;;;;20.98;12.75;;;16.00;99.90;;;;;;5039619;28;20385;-57
2022/07/06 01:25:15;;;;;;;15.85;14.35;;;16.00;99.90;;;;;;5040124;28;20210;-57
2022/07/06 01:27:42;;;;;;;14.43;12.88;;;15.70;99.90;;;;;;5039757;28;20278;-57
2022/07/06 01:30:12;;;;;;;15.32;13.77;;;15.80;99.90;;;;;;5040139;28;20204;-57
2022/07/06 01:32:39;;;;;;;16.98;15.30;;;15.80;99.90;;;;;;5039703;28;20208;-56
2022/07/06 01:35:08;;;;;;;16.27;14.70;;;15.70;99.90;;;;;;5039692;28;20224;-54
2022/07/06 01:37:36;;;;;;;18.45;16.55;;;15.60;99.90;;;;;;5039433;28;20229;-59
2022/07/06 01:40:06;;;;;;;19.58;15.95;;;15.50;99.90;;;;;;5039886;28;20271;-56
2022/07/06 01:42:33;;;;;;;14.75;13.48;;;15.50;99.90;;;;;;5039832;28;20243;-57
2022/07/06 01:45:02;;;;;;;17.95;16.08;;;15.60;99.90;;;;;;5039181;28;20238;-59
2022/07/06 01:47:29;;;;;;;19.48;17.52;;;15.60;99.90;;;;;;5039416;28;20598;-54
2022/07/06 01:50:01;;;;;;;16.35;14.75;;;15.70;99.90;;;;;;5040026;28;20212;-55
2022/07/06 01:52:28;;;;;;;19.60;16.13;;;15.70;99.90;;;;;;5039082;28;20216;-57
2022/07/06 01:54:56;;;;;;;17.98;16.27;;;15.80;99.90;;;;;;5039405;28;20233;-57
2022/07/06 01:57:26;;;;;;;17.92;16.08;;;15.70;99.90;;;;;;5039034;28;20221;-58
2022/07/06 01:59:53;;;;;;;25.08;17.17;;;15.70;99.90;;;;;;5039387;28;20379;-58
2022/07/06 02:02:20;;;;;;;16.50;14.90;;;15.70;99.90;;;;;;5038924;28;20492;-56
2022/07/06 02:04:51;;;;;;;18.52;16.75;;;15.60;99.90;;;;;;5039219;28;20204;-57
2022/07/06 02:07:18;;;;;;;24.75;18.10;;;15.50;99.90;;;;;;5039890;28;20225;-58
2022/07/06 02:09:45;;;;;;;19.00;17.20;;;15.50;99.90;;;;;;5040284;28;20403;-57
2022/07/06 02:12:12;;;;;;;19.35;17.27;;;15.50;99.90;;;;;;5039208;28;20392;-54
2022/07/06 02:14:39;;;;;;;17.75;15.95;;;15.60;99.90;;;;;;5039026;28;20421;-57
2022/07/06 02:17:06;;;;;;;16.83;15.13;;;15.70;99.90;;;;;;5038781;28;20224;-56
2022/07/06 02:19:33;;;;;;;16.83;15.27;;;15.90;99.90;;;;;;5039056;28;20239;-57
2022/07/06 02:22:00;;;;;;;17.63;15.82;;;16.00;99.90;;;;;;5038696;28;20206;-57
2022/07/06 02:24:27;;;;;;;18.42;16.73;;;15.80;99.90;;;;;;5021712;28;20199;-58
2022/07/06 02:26:54;;;;;;;17.40;15.75;;;15.70;99.90;;;;;;5039045;28;20555;-59
2022/07/06 02:29:21;;;;;;;19.33;16.83;;;15.60;99.90;;;;;;5038763;28;20198;-57
2022/07/06 02:31:48;;;;;;;19.38;16.80;;;15.60;99.90;;;;;;5038790;28;20197;-58
2022/07/06 02:34:16;;;;;;;19.05;16.75;;;15.60;99.90;;;;;;5038845;28;20205;-58
2022/07/06 02:36:43;;;;;;;17.48;14.60;;;15.60;99.90;;;;;;5039126;28;20469;-58
2022/07/06 02:39:10;;;;;;;17.77;14.52;;;15.60;99.90;;;;;;5039062;28;20534;-58
2022/07/06 02:41:37;;;;;;;17.27;15.57;;;15.60;99.90;;;;;;5039457;28;20197;-58
2022/07/06 02:44:04;;;;;;;17.00;15.00;;;15.50;99.90;;;;;;5038942;28;20201;-58
2022/07/06 02:46:31;;;;;;;16.98;15.25;;;15.60;99.90;;;;;;5038589;28;20231;-57
2022/07/06 02:48:58;;;;;;;17.85;16.00;;;15.70;99.90;;;;;;5038750;28;20205;-58
2022/07/06 02:51:25;;;;;;;18.05;16.17;;;15.70;99.90;;;;;;5039142;28;20200;-58
2022/07/06 02:53:52;;;;;;;17.45;15.73;;;15.70;99.90;;;;;;5039113;28;20201;-58
2022/07/06 02:56:19;;;;;;;17.58;16.00;;;15.90;99.90;;;;;;5039908;28;20236;-58
2022/07/06 02:58:46;;;;;;;19.13;17.15;;;15.90;99.90;;;;;;5042341;28;20209;-55
2022/07/06 03:01:13;;;;;;;18.75;16.88;;;15.80;99.90;;;;;;5042212;28;20578;-57
2022/07/06 03:03:40;;;;;;;18.05;16.38;;;15.90;99.90;;;;;;5042302;28;20246;-58
2022/07/06 03:06:07;;;;;;;19.33;16.00;;;16.10;99.90;;;;;;5042472;28;20495;-58
2022/07/06 03:08:35;;;;;;;16.67;15.02;;;16.20;99.90;;;;;;5042363;28;20195;-56
2022/07/06 03:11:02;;;;;;;17.55;14.73;;;16.50;99.90;;;;;;5042521;28;20295;-54
2022/07/06 03:13:29;;;;;;;17.90;14.43;;;16.60;99.90;;;;;;5042495;28;20208;-58
2022/07/06 03:15:56;;;;;;;17.67;14.18;;;16.70;99.90;;;;;;5042336;28;20233;-59
2022/07/06 03:18:24;;;;;;;13.47;12.37;;;16.70;99.90;;;;;;5042585;28;20289;-57
2022/07/06 03:20:52;;;;;;;14.48;13.18;;;16.50;99.90;;;;;;5042420;28;20748;-56
2022/07/06 03:23:19;;;;;;;20.50;14.60;;;16.40;99.90;;;;;;5042643;28;20236;-57
2022/07/06 03:25:48;;;;;;;15.83;14.00;;;16.10;99.90;;;;;;5046089;28;20208;-58
2022/07/06 03:28:15;;;;;;;16.50;13.85;;;15.90;99.90;;;;;;5026605;28;20509;-58
2022/07/06 03:30:43;;;;;;;14.10;12.75;;;15.80;99.90;;;;;;5043176;28;20206;-57
2022/07/06 03:33:10;;;;;;;15.53;11.80;;;15.90;99.90;;;;;;5043590;28;20248;-58
2022/07/06 03:35:41;;;;;;;18.48;12.57;;;15.90;99.90;;;;;;5042169;28;20469;-57
2022/07/06 03:38:08;;;;;;;13.32;12.10;;;15.90;99.90;;;;;;5062805;22;20237;-56
2022/07/06 03:40:35;;;;;;;13.68;12.10;;;15.90;99.90;;;;;;5042230;28;20215;-56
2022/07/06 03:43:02;;;;;;;13.10;11.90;;;15.90;99.90;;;;;;5042076;28;20438;-56
2022/07/06 03:45:30;;;;;;;14.85;11.43;;;16.00;99.90;;;;;;5042376;28;20202;-53
2022/07/06 03:47:57;;;;;;;11.55;10.35;;;16.00;99.90;;;;;;5041993;28;20242;-55
2022/07/06 03:50:28;;;;;;;19.13;11.20;;;16.00;99.90;;;;;;5042167;28;20555;-56
2022/07/06 03:52:55;;;;;;;12.00;10.40;;;16.00;99.90;;;;;;5041919;28;20436;-55
2022/07/06 03:55:22;;;;;;;14.82;9.45;;;16.10;99.90;;;;;;5041946;28;20396;-54
2022/07/06 03:57:49;;;;;;;10.57;8.20;;;16.30;99.90;;;;;;5041854;28;20222;-56
2022/07/06 04:00:17;;;;;;;8.48;7.68;;;16.40;99.90;;;;;;5041995;28;20440;-56
2022/07/06 04:02:44;;;;;;;9.33;7.90;;;16.40;99.90;;;;;;5041650;28;20527;-52
2022/07/06 04:05:12;;;;;;;6.83;6.33;;;16.40;99.90;;;;;;5042098;28;20433;-56
2022/07/06 04:07:39;;;;;;;7.63;6.93;;;16.40;99.90;;;;;;5041347;28;20432;-52
2022/07/06 04:10:07;;;;;;;10.80;6.77;;;16.40;99.90;;;;;;5041645;28;20468;-52
2022/07/06 04:12:41;;;;;;;7.90;7.23;;;16.40;99.90;;;;;;5041551;28;20655;-52
2022/07/06 04:15:09;;;;;;;6.60;6.00;;;16.40;99.90;;;;;;5041880;28;20458;-54
2022/07/06 04:17:52;;;;;;;6.50;5.90;;;16.40;99.90;;;;;;5041956;28;20786;-57
2022/07/06 04:20:20;;;;;;;7.97;6.20;;;16.50;99.90;;;;;;5041890;28;20486;-56
2022/07/06 04:22:48;;;;;;;5.30;4.90;;;16.50;99.90;;;;;;5042112;28;20439;-56
2022/07/06 04:25:16;;;;;;;6.33;5.73;;;16.50;99.90;;;;;;5041989;28;20444;-56
2022/07/06 04:27:43;;;;;;;6.17;5.57;;;16.40;99.90;;;;;;5042204;28;20458;-56
2022/07/06 04:30:11;;;;;;;6.57;5.73;;;16.40;99.90;;;;;;5041742;28;20431;-55
2022/07/06 04:32:38;;;;;;;5.78;5.18;;;16.30;99.90;;;;;;5041967;28;20523;-56
2022/07/06 04:35:06;;;;;;;6.82;5.75;;;15.90;99.90;;;;;;5042892;28;20214;-58
2022/07/06 04:37:34;;;;;;;5.70;5.20;;;15.40;99.90;;;;;;5042770;28;20545;-58
2022/07/06 04:40:01;;;;;;;6.80;5.20;;;15.00;99.90;;;;;;5042253;28;20201;-58
2022/07/06 04:42:28;;;;;;;7.13;5.00;;;14.80;99.90;;;;;;5041948;28;20197;-56
2022/07/06 04:44:56;;;;;;;7.78;6.07;;;14.70;99.90;;;;;;5042096;28;20196;-53
2022/07/06 04:47:23;;;;;;;6.72;6.22;;;14.70;99.90;;;;;;5042166;28;20224;-50
2022/07/06 04:49:50;;;;;;;6.97;6.28;;;14.70;99.90;;;;;;5040997;28;20197;-50
2022/07/06 04:52:18;;;;;;;6.90;6.28;;;14.60;99.90;;;;;;5040386;28;20196;-51
2022/07/06 04:54:45;;;;;;;6.80;6.20;;;14.50;99.90;;;;;;5040964;28;20235;-51
2022/07/06 04:57:12;;;;;;;8.30;6.70;;;14.50;99.90;;;;;;5040751;28;20236;-51
2022/07/06 04:59:39;;;;;;;7.13;6.43;;;14.50;99.90;;;;;;5041937;28;20390;-50
2022/07/06 05:02:06;;;;;;;9.35;7.30;;;14.50;99.90;;;;;;5041403;28;20323;-50
2022/07/06 05:04:33;;;;;;;8.02;7.40;;;14.50;99.90;;;;;;5040834;28;20224;-49
2022/07/06 05:07:01;;;;;;;6.72;6.13;;;14.60;99.90;;;;;;5040801;28;20262;-53
2022/07/06 05:09:28;;;;;;;8.30;7.35;;;14.60;99.90;;;;;;5042949;28;20204;-51
2022/07/06 05:11:56;;;;;;;7.90;7.25;;;14.60;99.90;;;;;;5040461;28;20199;-50
2022/07/06 05:14:23;;;;;;;7.60;6.80;;;14.60;99.90;;;;;;5022950;28;20201;-49
2022/07/06 05:16:50;;;;;;;7.90;7.20;;;14.70;99.90;;;;;;5040446;28;20232;-48
2022/07/06 05:19:17;;;;;;;7.75;7.05;;;14.70;99.90;;;;;;5039880;28;20408;-48
2022/07/06 05:21:44;;;;;;;7.50;6.80;;;14.80;99.90;;;;;;5040610;28;20197;-49
2022/07/06 05:24:12;;;;;;;8.25;7.55;;;14.90;99.90;;;;;;5040603;28;20242;-48
2022/07/06 05:26:39;;;;;;;9.77;8.88;;;15.20;99.90;;;;;;5040355;28;21709;-52
2022/07/06 05:29:06;;;;;;;12.13;8.05;;;15.40;99.90;;;;;;5040035;28;20201;-51
2022/07/06 05:31:34;;;;;;;10.60;9.55;;;15.40;99.90;;;;;;5040769;28;20205;-51
2022/07/06 05:34:01;;;;;;;8.05;7.35;;;15.50;99.90;;;;;;5040208;28;20204;-48
2022/07/06 05:36:28;;;;;;;8.45;7.70;;;15.60;99.90;;;;;;5040065;28;20227;-48
2022/07/06 05:38:56;;;;;;;8.35;7.65;;;15.60;99.90;;;;;;5040239;28;20208;-50
2022/07/06 05:41:23;;;;;;;18.70;16.58;;;15.80;99.90;;;;;;5040435;28;20528;-55
2022/07/06 05:43:56;;;;;;;9.73;8.93;;;15.90;99.90;;;;;;5041531;28;20389;-49
2022/07/06 05:46:23;;;;;;;9.10;8.30;;;15.80;99.90;;;;;;5040341;28;20293;-50
2022/07/06 05:51:36;;;;;;;10.13;9.23;;;15.80;99.90;;;;;;5040869;28;20540;-52
2022/07/06 05:54:04;;;;;;;8.23;7.53;;;16.20;99.90;;;;;;5039758;28;20438;-51
2022/07/06 05:56:31;;;;;;;7.50;6.37;;;16.20;99.90;;;;;;5040179;28;20544;-51
2022/07/06 05:58:59;;;;;;;11.18;8.50;;;16.10;99.90;;;;;;5040086;28;20462;-55
2022/07/06 06:01:26;;;;;;;9.93;6.97;;;16.10;99.90;;;;;;5040760;28;20202;-53
2022/07/06 06:03:53;;;;;;;7.00;6.40;;;15.70;99.90;;;;;;5022811;28;20203;-53
2022/07/06 06:06:20;;;;;;;8.63;7.83;;;15.60;99.90;;;;;;5040006;28;20239;-52
2022/07/06 06:08:48;;;;;;;8.05;7.30;;;15.90;99.90;;;;;;5039888;28;20496;-52
2022/07/06 06:11:15;;;;;;;8.35;7.65;;;16.20;99.90;;;;;;5040005;28;20205;-54
2022/07/06 06:13:42;;;;;;;11.45;8.60;;;16.30;99.90;;;;;;5040111;28;20465;-52
2022/07/06 06:16:10;;;;;;;9.07;8.18;;;16.50;99.90;;;;;;5040204;28;20255;-52
2022/07/06 06:18:37;;;;;;;8.93;8.00;;;16.50;99.90;;;;;;5040006;28;20474;-55
2022/07/06 06:21:09;;;;;;;8.73;8.00;;;16.60;99.90;;;;;;5040102;28;20432;-51
2022/07/06 06:23:36;;;;;;;8.63;7.80;;;16.70;99.90;;;;;;5040123;28;20430;-53
2022/07/06 06:26:03;;;;;;;9.27;8.47;;;17.00;99.90;;;;;;5040251;28;20411;-51
2022/07/06 06:28:30;;;;;;;9.67;8.67;;;17.10;99.90;;;;;;5039938;28;20455;-51
2022/07/06 06:30:58;;;;;;;14.70;8.27;;;17.20;99.90;;;;;;5041364;28;20611;-56
2022/07/06 06:33:25;;;;;;;7.63;6.93;;;17.30;99.90;;;;;;5043954;28;20438;-53
2022/07/06 06:35:53;;;;;;;8.70;6.63;;;17.30;99.90;;;;;;5043365;28;20469;-51
2022/07/06 06:38:25;;;;;;;8.40;7.60;;;17.30;99.90;;;;;;5043311;28;20797;-52
2022/07/06 06:40:55;;;;;;;7.37;6.67;;;17.30;99.90;;;;;;5043277;28;20433;-56
2022/07/06 06:43:22;;;;;;;8.90;6.40;;;17.30;99.90;;;;;;5043479;28;20442;-52
2022/07/06 06:45:50;;;;;;;7.10;6.40;;;17.50;99.90;;;;;;5043036;28;20432;-49
2022/07/06 06:48:18;;;;;;;8.03;7.33;;;17.50;99.90;;;;;;5043017;28;20455;-51
2022/07/06 06:50:46;;;;;;;8.27;7.57;;;17.70;99.90;;;;;;5043064;28;20437;-50
2022/07/06 06:53:14;;;;;;;11.60;6.90;;;17.90;99.90;;;;;;5043045;28;20431;-53
2022/07/06 06:55:41;;;;;;;7.27;6.70;;;17.80;99.90;;;;;;5042944;28;20675;-52
2022/07/06 06:58:08;;;;;;;7.93;7.30;;;17.50;99.90;;;;;;5042621;28;20453;-52
2022/07/06 07:00:36;;;;;;;7.10;6.50;;;18.00;99.90;;;;;;5042453;28;20440;-54
2022/07/06 07:03:03;;;;;;;5.33;4.97;;;19.50;99.90;;;;;;5043077;28;20404;-57
2022/07/06 07:05:30;;;;;;;6.13;5.33;;;21.80;99.90;;;;;;5042785;28;20416;-57
2022/07/06 07:07:58;;;;;;;4.30;3.90;;;24.20;99.90;;;;;;5043070;28;20468;-53
2022/07/06 07:10:31;;;;;;;4.67;4.00;;;26.00;99.90;;;;;;5042798;28;20408;-51
2022/07/06 07:12:58;;;;;;;4.43;3.90;;;27.00;99.90;;;;;;5042534;28;20438;-52
2022/07/06 07:15:26;;;;;;;4.80;4.40;;;29.00;99.90;;;;;;5042313;28;20743;-55
2022/07/06 07:17:53;;;;;;;3.50;3.30;;;29.60;99.90;;;;;;5042761;28;20470;-57
2022/07/06 07:20:20;;;;;;;3.37;3.07;;;30.70;99.90;;;;;;5042434;28;20497;-55
2022/07/06 07:22:47;;;;;;;2.97;2.77;;;31.80;99.90;;;;;;5042608;28;20433;-54
2022/07/06 07:25:14;;;;;;;4.80;3.97;;;32.30;99.90;;;;;;5042518;28;20452;-56
2022/07/06 07:27:42;;;;;;;4.07;3.43;;;33.80;98.20;;;;;;5041966;28;20714;-55
2022/07/06 07:30:09;;;;;;;3.10;2.90;;;33.60;95.00;;;;;;5042364;28;20442;-55
2022/07/06 07:32:40;;;;;;;3.50;3.20;;;33.70;93.90;;;;;;5042497;28;20447;-55
2022/07/06 07:35:08;;;;;;;3.60;3.20;;;33.90;93.50;;;;;;5042768;28;20501;-55
2022/07/06 07:37:35;;;;;;;3.57;3.27;;;34.00;92.70;;;;;;5041778;28;20485;-54
2022/07/06 07:40:04;;;;;;;3.77;3.47;;;32.90;92.80;;;;;;5042499;28;20620;-53
2022/07/06 07:42:32;;;;;;;3.10;2.90;;;33.40;92.80;;;;;;5041393;28;20802;-57
2022/07/06 07:44:59;;;;;;;3.13;2.87;;;33.50;89.70;;;;;;5042416;28;20429;-55
2022/07/06 07:47:26;;;;;;;4.43;2.80;;;33.90;90.00;;;;;;5041952;28;20453;-52
2022/07/06 07:49:54;;;;;;;3.70;2.70;;;34.60;84.90;;;;;;5041911;28;20771;-55
2022/07/06 07:52:22;;;;;;;2.40;2.27;;;34.20;83.00;;;;;;5042007;28;20512;-54
2022/07/06 07:54:49;;;;;;;2.70;2.50;;;34.70;84.20;;;;;;5041548;28;20602;-55
2022/07/06 07:57:36;;;;;;;2.57;2.37;;;35.20;79.40;;;;;;5044555;28;20865;-56
2022/07/06 08:00:05;;;;;;;2.13;2.03;;;34.20;80.10;;;;;;5046225;28;20475;-52
2022/07/06 08:02:32;;;;;;;2.47;1.70;;;34.50;80.70;;;;;;5045751;28;20692;-56
2022/07/06 08:04:59;;;;;;;3.17;2.80;;;35.40;76.10;;;;;;5045882;28;20434;-56
2022/07/06 08:07:26;;;;;;;2.27;2.07;;;36.00;76.50;;;;;;5045471;28;20723;-53
2022/07/06 08:09:53;;;;;;;2.10;2.00;;;35.10;78.10;;;;;;5045021;28;20513;-49
2022/07/06 08:12:20;;;;;;;2.00;1.90;;;34.70;75.40;;;;;;5041791;28;20437;-48
2022/07/06 08:14:47;;;;;;;4.70;2.20;;;35.20;80.10;;;;;;5041227;28;20429;-53
2022/07/06 08:17:14;;;;;;;2.07;1.97;;;35.20;72.10;;;;;;5040743;28;20477;-53
2022/07/06 08:19:41;;;;;;;2.33;2.20;;;35.40;72.40;;;;;;5041408;28;20429;-54
2022/07/06 08:22:09;;;;;;;2.10;2.00;;;36.20;69.90;;;;;;5040984;28;20434;-55
2022/07/06 08:24:36;;;;;;;2.23;2.03;;;35.50;69.00;;;;;;5041413;28;20426;-52
2022/07/06 08:27:04;;;;;;;3.87;1.97;;;34.40;71.60;;;;;;5040787;28;20450;-54
2022/07/06 08:29:31;;;;;;;1.80;1.70;;;33.90;72.80;;;;;;5041314;28;20480;-55
2022/07/06 08:31:58;;;;;;;2.47;1.70;;;35.30;70.70;;;;;;5041103;28;20725;-56
2022/07/06 08:34:36;;;;;;;1.60;1.50;;;35.30;68.90;;;;;;5040583;28;20849;-51
2022/07/06 08:37:03;;;;;;;1.70;1.60;;;34.80;70.80;;;;;;5040809;28;20477;-53
2022/07/06 08:39:31;;;;;;;1.70;1.60;;;33.90;71.40;;;;;;5041037;28;20426;-55
2022/07/06 08:42:00;;;;;;;2.30;2.10;;;33.60;73.10;;;;;;5040987;28;20437;-51
2022/07/06 08:44:29;;;;;;;3.13;2.30;;;33.90;72.50;;;;;;5040549;28;20438;-56
2022/07/06 08:46:57;;;;;;;2.60;2.40;;;33.40;73.40;;;;;;5040460;28;20548;-54
2022/07/06 08:49:26;;;;;;;2.10;2.00;;;33.90;72.70;;;;;;5040373;28;20504;-55
2022/07/06 08:51:54;;;;;;;6.70;1.60;;;34.90;70.00;;;;;;5040471;28;20440;-52
2022/07/06 08:54:22;;;;;;;2.27;1.80;;;35.00;70.40;;;;;;5040464;28;20430;-52
2022/07/06 08:56:50;;;;;;;2.37;2.17;;;34.50;69.40;;;;;;5040984;28;20478;-54
2022/07/06 08:59:17;;;;;;;4.10;1.90;;;34.40;68.30;;;;;;5040414;28;20437;-51
2022/07/06 09:01:47;;;;;;;2.27;2.07;;;33.90;70.10;;;;;;5040324;28;20449;-55
2022/07/06 09:04:21;;;;;;;2.10;1.87;;;34.20;70.40;;;;;;5040509;28;20701;-57
2022/07/06 09:06:50;;;;;;;3.17;2.30;;;35.40;67.90;;;;;;5040498;28;20772;-55
2022/07/06 09:09:22;;;;;;;1.77;1.67;;;35.90;63.50;;;;;;5040770;28;20483;-54
2022/07/06 09:11:50;;;;;;;2.23;2.10;;;35.40;65.40;;;;;;5040320;28;20477;-50
2022/07/06 09:14:21;;;;;;;1.90;1.80;;;34.40;66.60;;;;;;5040228;28;20442;-53
2022/07/06 09:17:01;;;;;;;2.30;2.10;;;34.20;67.00;;;;;;5040296;28;20473;-52
2022/07/06 09:19:28;;;;;;;3.50;2.20;;;35.50;65.40;;;;;;5040123;28;20426;-52
2022/07/06 09:21:55;;;;;;;1.87;1.77;;;35.50;63.40;;;;;;5040173;28;20433;-52
2022/07/06 09:24:26;;;;;;;2.80;2.60;;;33.90;66.80;;;;;;5040246;28;20449;-54
2022/07/06 09:26:55;;;;;;;2.63;2.43;;;30.70;76.10;;;;;;5040584;28;20468;-55
2022/07/06 09:29:30;;;;;;;1.97;1.87;;;30.70;76.70;;;;;;5040223;28;20435;-53
2022/07/06 09:32:02;;;;;;;2.93;2.70;;;31.70;75.70;;;;;;5039950;28;20437;-53
2022/07/06 09:34:46;;;;;;;4.33;1.93;;;32.60;72.50;;;;;;5039905;28;20475;-50
2022/07/06 09:37:14;;;;;;;3.60;1.97;;;33.00;71.20;;;;;;5061041;22;20488;-56
2022/07/06 09:39:43;;;;;;;3.50;2.30;;;32.30;73.00;;;;;;5042731;28;20443;-58
2022/07/06 09:42:10;;;;;;;6.40;2.57;;;30.20;81.80;;;;;;5043696;28;20414;-59
2022/07/06 09:44:40;;;;;;;2.40;2.30;;;28.20;86.50;;;;;;5049194;28;20421;-59
2022/07/06 09:47:11;;;;;;;2.67;2.47;;;27.50;91.40;;;;;;5043446;28;20433;-59
2022/07/06 09:49:39;;;;;;;3.10;2.30;;;27.00;94.90;;;;;;5042195;28;20441;-59
2022/07/06 09:52:10;;;;;;;2.77;2.57;;;26.70;94.50;;;;;;5040203;28;20620;-58
2022/07/06 09:54:39;;;;;;;5.43;2.80;;;27.00;96.30;;;;;;5039589;28;20422;-58
2022/07/06 09:57:07;;;;;;;2.53;2.33;;;26.70;95.50;;;;;;5039474;28;20528;-57
2022/07/06 09:59:36;;;;;;;5.43;1.90;;;26.10;96.10;;;;;;5039558;28;20427;-58
2022/07/06 10:02:05;;;;;;;2.57;2.40;;;25.80;98.40;;;;;;5039601;28;20426;-58
2022/07/06 10:04:33;;;;;;;1.87;1.77;;;25.70;98.00;;;;;;5040285;28;20740;-61
2022/07/06 10:07:01;;;;;;;2.37;2.00;;;25.80;97.20;;;;;;5043111;28;20426;-60
2022/07/06 10:09:29;;;;;;;8.37;2.07;;;26.10;97.40;;;;;;5043631;28;20411;-57
2022/07/06 10:11:59;;;;;;;3.63;1.87;;;26.00;96.50;;;;;;5043389;28;20441;-57
2022/07/06 10:14:33;;;;;;;1.93;1.83;;;25.80;94.20;;;;;;5026071;28;20790;-57
2022/07/06 10:17:03;;;;;;;5.67;3.07;;;25.40;96.70;;;;;;5043278;28;20531;-54
2022/07/06 10:19:32;;;;;;;2.07;1.87;;;25.50;96.70;;;;;;5043764;28;20472;-57
2022/07/06 10:22:01;;;;;;;3.90;2.00;;;25.40;97.70;;;;;;5043326;28;20415;-56
2022/07/06 10:24:29;;;;;;;2.73;1.93;;;25.00;96.10;;;;;;5044029;28;20425;-57
2022/07/06 10:26:57;;;;;;;4.00;1.93;;;24.60;94.70;;;;;;5043464;28;20592;-56
2022/07/06 10:29:25;;;;;;;1.87;1.77;;;24.50;96.50;;;;;;5043570;28;20763;-58
2022/07/06 10:31:53;;;;;;;8.27;2.20;;;24.60;95.50;;;;;;5043399;28;20434;-59
2022/07/06 10:34:21;;;;;;;1.60;1.50;;;24.80;96.70;;;;;;5043901;28;20400;-56
2022/07/06 10:36:50;;;;;;;2.60;1.73;;;25.30;95.80;;;;;;5043097;28;20467;-57
2022/07/06 10:42:40;;;;;;;2.57;1.93;;;26.30;92.20;;;;;;5043232;28;20429;-58
2022/07/06 10:45:08;;;;;;;4.03;2.40;;;26.90;91.40;;;;;;5043030;28;20429;-58
2022/07/06 10:47:36;;;;;;;1.83;1.73;;;27.00;92.60;;;;;;5042855;28;20679;-60
2022/07/06 10:50:04;;;;;;;3.40;2.43;;;27.10;91.40;;;;;;5043156;28;20439;-58
2022/07/06 10:52:58;;;;;;;1.70;1.60;;;27.00;92.20;;;;;;5042443;28;20429;-58
2022/07/06 10:55:35;;;;;;;1.50;1.40;;;26.40;82.60;;;;;;5043020;28;20505;-58
2022/07/06 10:58:03;;;;;;;1.70;1.60;;;26.10;84.40;;;;;;5042589;28;20745;-59
2022/07/06 11:00:52;;;;;;;3.13;2.03;;;26.30;88.30;;;;;;5042871;28;20500;-58
2022/07/06 11:03:43;;;;;;;2.10;2.00;;;26.80;87.40;;;;;;5042805;28;20425;-59
2022/07/06 11:06:15;;;;;;;2.50;2.30;;;26.90;87.70;;;;;;5042726;28;20681;-57
2022/07/06 11:08:53;;;;;;;1.93;1.60;;;26.80;85.40;;;;;;5041649;28;20454;-58
2022/07/06 11:11:48;;;;;;;2.30;2.10;;;26.30;87.40;;;;;;5042499;28;20477;-59
2022/07/06 11:14:21;;;;;;;2.57;1.57;;;25.70;90.30;;;;;;5039826;28;20446;-59
2022/07/06 11:16:48;;;;;;;1.43;1.33;;;25.80;91.80;;;;;;5041222;28;20430;-58
2022/07/06 11:19:16;;;;;;;1.67;1.30;;;26.10;91.50;;;;;;5041973;28;20431;-58
2022/07/06 11:21:45;;;;;;;1.77;1.63;;;26.00;89.90;;;;;;5042009;28;20433;-59
2022/07/06 11:24:20;;;;;;;2.20;2.00;;;26.20;86.90;;;;;;5041834;28;20400;-59
2022/07/06 11:26:50;;;;;;;4.50;1.80;;;25.80;89.80;;;;;;5041704;28;20788;-58
2022/07/06 11:29:20;;;;;;;2.53;1.93;;;25.80;90.90;;;;;;5041675;28;20408;-56
2022/07/06 11:31:49;;;;;;;2.27;2.10;;;25.50;91.60;;;;;;5041871;28;20448;-57
2022/07/06 11:34:25;;;;;;;2.20;1.80;;;25.70;92.10;;;;;;5024486;28;20411;-59
2022/07/06 11:36:57;;;;;;;2.73;1.80;;;25.60;91.40;;;;;;5041777;28;20403;-58
2022/07/06 11:39:32;;;;;;;2.20;2.00;;;25.20;92.60;;;;;;5041653;28;20759;-56
2022/07/06 11:42:01;;;;;;;1.63;1.53;;;24.60;93.20;;;;;;5041439;28;20418;-57
2022/07/06 11:44:28;;;;;;;7.00;2.60;;;24.20;94.30;;;;;;5041536;28;20408;-59
2022/07/06 11:46:57;;;;;;;2.23;1.93;;;23.80;94.80;;;;;;5041759;28;20533;-59
2022/07/06 11:49:24;;;;;;;1.73;1.63;;;23.60;96.10;;;;;;5040998;28;20496;-58
2022/07/06 11:51:51;;;;;;;1.80;1.70;;;23.40;97.80;;;;;;5042024;28;20414;-58
2022/07/06 11:54:20;;;;;;;1.77;1.67;;;23.20;98.00;;;;;;5042302;28;20447;-58
2022/07/06 11:56:53;;;;;;;1.90;1.80;;;23.40;99.30;;;;;;5041805;28;20409;-58
2022/07/06 11:59:25;;;;;;;3.00;2.00;;;23.60;98.20;;;;;;5041948;28;20416;-58
2022/07/06 12:02:03;;;;;;;2.70;1.50;;;23.80;97.50;;;;;;5041885;28;20504;-58
2022/07/06 12:04:33;;;;;;;1.70;1.60;;;23.90;98.30;;;;;;5042109;28;20724;-60
2022/07/06 12:07:07;;;;;;;1.90;1.80;;;24.00;98.40;;;;;;5042137;28;20820;-56
2022/07/06 12:09:36;;;;;;;4.70;2.13;;;24.30;99.30;;;;;;5041919;28;20457;-58
2022/07/06 12:12:05;;;;;;;1.70;1.60;;;24.40;97.90;;;;;;5041884;28;20409;-57
2022/07/06 12:14:35;;;;;;;5.03;2.00;;;24.40;98.20;;;;;;5041986;28;20404;-58
2022/07/06 12:17:06;;;;;;;4.07;2.27;;;24.40;97.80;;;;;;5041241;28;20444;-58
2022/07/06 12:19:35;;;;;;;1.63;1.53;;;24.20;97.90;;;;;;5040854;28;20537;-58
2022/07/06 12:22:03;;;;;;;1.60;1.40;;;24.50;95.70;;;;;;5040886;28;20404;-58
2022/07/06 12:24:32;;;;;;;2.20;1.53;;;24.70;93.60;;;;;;5041058;28;20600;-58
2022/07/06 12:27:20;;;;;;;1.37;1.27;;;24.70;93.50;;;;;;5040745;28;20428;-58
2022/07/06 12:29:48;;;;;;;1.50;1.40;;;24.40;93.70;;;;;;5040644;28;20492;-58
2022/07/06 12:32:27;;;;;;;3.10;1.80;;;24.20;95.20;;;;;;5041662;28;20505;-59
2022/07/06 12:35:07;;;;;;;1.27;1.17;;;24.10;95.30;;;;;;5024279;28;20407;-59
2022/07/06 12:37:36;;;;;;;1.30;1.20;;;24.10;94.90;;;;;;5041423;28;20616;-59
2022/07/06 12:40:12;;;;;;;2.40;1.33;;;24.40;93.60;;;;;;5041417;28;20497;-59
2022/07/06 12:42:49;;;;;;;5.60;1.47;;;24.60;93.20;;;;;;5041339;28;20474;-57
2022/07/06 12:45:16;;;;;;;2.93;1.60;;;24.80;91.90;;;;;;5040923;28;20461;-55
2022/07/06 12:48:01;;;;;;;3.13;1.30;;;25.10;92.10;;;;;;5040771;28;20444;-57
2022/07/06 12:50:34;;;;;;;1.70;1.60;;;25.40;91.60;;;;;;5040503;28;20484;-60
2022/07/06 12:53:03;;;;;;;1.60;1.50;;;25.30;85.00;;;;;;5040540;28;20773;-57
2022/07/06 12:55:31;;;;;;;2.13;1.30;;;24.90;85.20;;;;;;5040309;28;20591;-56